Time;durP1;ratioP1;P1;durP2;ratioP2;P2;SDS_P1;SDS_P2;PMS_P1;PMS_P2;Temp;Humidity;BMP_temperature;BMP_pressure;BME280_temperature;BME280_humidity;BME280_pressure;Samples;Min_cycle;Max_cycle;Signal;HPM_P1;HPM_P2
2020/12/24 00:00:20;;;;;;;7.27;6.50;;;;;;;-143.37;100.00;65745.06;5133497;27;20306;-68
2020/12/24 00:02:46;;;;;;;6.83;6.13;;;;;;;-143.37;100.00;65745.06;5135348;27;20207;-68
2020/12/24 00:05:15;;;;;;;8.83;6.50;;;;;;;-143.37;100.00;65745.06;5120342;27;20639;-68
2020/12/24 00:07:43;;;;;;;9.10;6.83;;;;;;;-143.37;100.00;65745.06;5138580;27;20232;-67
2020/12/24 00:10:09;;;;;;;6.20;5.60;;;;;;;-143.37;100.00;65745.06;5137075;27;20218;-70
2020/12/24 00:12:36;;;;;;;6.70;6.10;;;;;;;-143.37;100.00;65745.06;5145105;27;20208;-70
2020/12/24 00:15:06;;;;;;;6.70;6.07;;;;;;;-143.37;100.00;65745.06;5150326;27;20227;-68
2020/12/24 00:17:33;;;;;;;7.00;6.30;;;;;;;-143.37;100.00;65745.06;5135445;27;20206;-69
2020/12/24 00:19:59;;;;;;;7.50;5.57;;;;;;;-143.37;100.00;65745.06;5133632;27;20212;-68
2020/12/24 00:22:25;;;;;;;8.53;6.00;;;;;;;-143.37;100.00;65745.06;5133429;27;20256;-71
2020/12/24 00:24:51;;;;;;;7.03;6.37;;;;;;;-143.37;100.00;65745.06;5132600;27;20245;-67
2020/12/24 00:27:17;;;;;;;6.97;6.27;;;;;;;-143.37;100.00;65745.06;5132999;27;20207;-68
2020/12/24 00:29:43;;;;;;;7.53;6.20;;;;;;;-143.37;100.00;65745.06;5133242;27;20291;-68
2020/12/24 00:32:09;;;;;;;8.77;6.50;;;;;;;-143.37;100.00;65745.06;5133039;27;20848;-68
2020/12/24 00:34:39;;;;;;;7.00;6.30;;;;;;;10.41;100.00;97716.13;5132527;27;20230;-68
2020/12/24 00:37:05;;;;;;;7.17;5.93;;;;;;;10.41;100.00;97716.13;5132778;27;20203;-67
2020/12/24 00:39:31;;;;;;;7.83;6.20;;;;;;;10.75;100.00;97519.66;5133065;27;20202;-68
2020/12/24 00:41:57;;;;;;;6.27;5.67;;;;;;;10.74;100.00;97515.31;5132575;27;20200;-68
2020/12/24 00:44:23;;;;;;;6.97;6.27;;;;;;;10.82;100.00;97509.59;5132356;27;20255;-68
2020/12/24 00:46:49;;;;;;;7.77;6.10;;;;;;;10.85;100.00;97508.91;5132435;27;20245;-68
2020/12/24 00:49:16;;;;;;;6.93;5.93;;;;;;;10.79;100.00;97520.56;5114560;27;20211;-68
2020/12/24 00:51:42;;;;;;;6.60;5.60;;;;;;;10.71;100.00;97522.31;5132847;27;20228;-68
2020/12/24 00:54:08;;;;;;;6.10;5.50;;;;;;;10.92;100.00;97519.34;5132432;27;20675;-69
2020/12/24 00:56:37;;;;;;;6.10;5.50;;;;;;;10.77;100.00;97523.69;5132212;27;20227;-69
2020/12/24 00:59:03;;;;;;;6.77;5.87;;;;;;;10.74;100.00;97526.34;5132732;27;20306;-68
2020/12/24 01:34:18;;;;;;;6.40;5.60;;;;;;;10.61;100.00;97550.44;5108889;27;20495;-68
2020/12/24 01:36:44;;;;;;;8.13;6.30;;;;;;;10.65;100.00;97542.25;5108759;28;20247;-68
2020/12/24 01:39:11;;;;;;;7.83;5.47;;;;;;;10.73;100.00;97549.59;5109204;28;20815;-68
2020/12/24 01:41:37;;;;;;;8.40;6.40;;;;;;;10.46;100.00;97562.22;5110184;28;20203;-69
2020/12/24 01:44:03;;;;;;;7.33;5.13;;;;;;;10.51;100.00;97588.75;5110284;28;20196;-67
2020/12/24 01:46:30;;;;;;;5.90;5.30;;;;;;;10.64;100.00;97593.06;5111300;28;20280;-69
2020/12/24 01:49:15;;;;;;;5.43;4.67;;;;;;;10.62;100.00;97587.13;5110786;28;20188;-68
2020/12/24 01:51:49;;;;;;;8.17;4.20;;;;;;;10.65;100.00;97589.97;5107540;28;20315;-69
2020/12/24 01:54:16;;;;;;;5.70;4.27;;;;;;;10.62;100.00;97593.41;5108497;28;20306;-68
2020/12/24 01:56:44;;;;;;;4.77;4.03;;;;;;;10.75;100.00;97578.41;5108358;28;20227;-69
2020/12/24 01:59:15;;;;;;;5.77;4.03;;;;;;;10.66;100.00;97568.69;5106649;28;20635;-68
2020/12/24 02:01:45;;;;;;;5.37;3.53;;;;;;;10.64;100.00;97565.47;5108275;28;20249;-68
2020/12/24 02:04:16;;;;;;;4.67;3.43;;;;;;;10.60;100.00;97550.78;5107510;28;20279;-68
2020/12/24 02:06:51;;;;;;;5.07;3.70;;;;;;;10.51;100.00;97542.66;5107760;28;20224;-68
2020/12/24 02:09:17;;;;;;;4.23;2.90;;;;;;;10.55;100.00;97534.47;5107952;28;20204;-67
2020/12/24 02:11:43;;;;;;;4.63;2.90;;;;;;;10.66;100.00;97530.06;5108067;28;20203;-67
2020/12/24 02:14:10;;;;;;;3.60;2.97;;;;;;;10.51;100.00;97528.84;5107813;28;20569;-68
2020/12/24 02:16:37;;;;;;;6.70;3.00;;;;;;;10.52;100.00;97533.25;5105624;28;20250;-67
2020/12/24 02:19:06;;;;;;;5.80;3.00;;;;;;;10.45;100.00;97526.72;5106471;28;20211;-67
2020/12/24 02:21:40;;;;;;;3.13;2.57;;;;;;;10.51;100.00;97514.28;5110177;28;20256;-68
2020/12/24 02:24:08;;;;;;;4.90;2.40;;;;;;;10.49;100.00;97516.59;5108331;28;20569;-67
2020/12/24 02:26:34;;;;;;;3.23;2.20;;;;;;;10.64;100.00;97513.03;5112150;28;20289;-67
2020/12/24 02:29:03;;;;;;;2.67;1.87;;;;;;;10.75;100.00;97508.63;5109894;28;20238;-68
2020/12/24 02:31:29;;;;;;;3.50;1.90;;;;;;;10.66;100.00;97488.66;5110464;28;20215;-68
2020/12/24 02:33:55;;;;;;;2.20;1.87;;;;;;;10.64;100.00;97491.78;5107010;28;20323;-67
2020/12/24 02:36:21;;;;;;;3.27;1.87;;;;;;;10.60;100.00;97492.84;5106141;28;20228;-67
2020/12/24 02:38:52;;;;;;;1.67;1.50;;;;;;;10.59;100.00;97482.97;5107425;28;20204;-69
2020/12/24 02:41:18;;;;;;;1.83;1.60;;;;;;;10.48;100.00;97487.38;5107596;28;20648;-69
2020/12/24 02:43:45;;;;;;;3.57;2.07;;;;;;;10.55;100.00;97488.38;5103692;28;20224;-68
2020/12/24 02:46:12;;;;;;;2.67;1.80;;;;;;;10.54;100.00;97497.00;5093823;28;20232;-68
2020/12/24 02:48:41;;;;;;;2.87;1.90;;;;;;;10.55;100.00;97491.13;5093551;28;20214;-69
2020/12/24 02:51:08;;;;;;;3.07;1.97;;;;;;;10.46;100.00;97489.69;5092557;28;20648;-67
2020/12/24 02:53:37;;;;;;;4.10;2.10;;;;;;;10.46;100.00;97484.97;5093268;28;20285;-68
2020/12/24 02:56:04;;;;;;;2.37;2.10;;;;;;;10.57;100.00;97488.03;5093582;28;20231;-68
2020/12/24 02:58:31;;;;;;;2.90;1.87;;;;;;;10.61;100.00;97480.66;5092997;28;20208;-68
2020/12/24 03:00:57;;;;;;;3.03;1.80;;;;;;;10.45;100.00;97482.59;5093656;28;20204;-69
2020/12/24 03:03:26;;;;;;;3.20;1.70;;;;;;;10.39;100.00;97489.50;5093102;28;20228;-69
2020/12/24 03:05:53;;;;;;;3.70;1.67;;;;;;;10.51;100.00;97489.44;5093503;28;20258;-69
2020/12/24 03:08:19;;;;;;;2.50;1.80;;;;;;;10.51;100.00;97501.28;5092858;28;20250;-67
2020/12/24 03:10:49;;;;;;;2.67;1.70;;;;;;;10.50;100.00;97499.69;5093864;28;20277;-68
2020/12/24 03:13:17;;;;;;;2.80;1.70;;;;;;;10.54;100.00;97486.78;5097847;28;20309;-68
2020/12/24 03:15:43;;;;;;;3.03;1.70;;;;;;;10.50;100.00;97496.91;5094822;28;20619;-67
2020/12/24 03:18:09;;;;;;;1.93;1.63;;;;;;;10.45;100.00;97488.91;5093213;28;20289;-67
2020/12/24 03:20:35;;;;;;;1.80;1.50;;;;;;;10.35;100.00;97499.63;5093480;28;20569;-67
2020/12/24 03:23:07;;;;;;;1.63;1.47;;;;;;;10.47;100.00;97480.28;5092954;28;20236;-66
2020/12/24 03:25:36;;;;;;;2.27;1.30;;;;;;;10.57;100.00;97464.00;5094132;28;20232;-69
2020/12/24 03:28:02;;;;;;;2.43;1.30;;;;;;;10.48;100.00;97468.06;5093263;28;20262;-69
2020/12/24 03:30:28;;;;;;;2.33;1.23;;;;;;;10.58;100.00;97478.59;5095974;28;20232;-69
2020/12/24 03:32:54;;;;;;;2.03;1.30;;;;;;;10.52;100.00;97478.06;5094637;28;20653;-69
2020/12/24 03:35:21;;;;;;;1.77;1.17;;;;;;;10.51;100.00;97467.38;5092683;28;20269;-69
2020/12/24 03:37:47;;;;;;;4.57;1.10;;;;;;;10.56;100.00;97453.31;5091957;28;20291;-68
2020/12/24 03:40:13;;;;;;;2.43;1.33;;;;;;;10.58;100.00;97445.50;5092407;28;20208;-69
2020/12/24 03:42:39;;;;;;;1.73;1.00;;;;;;;10.53;100.00;97440.25;5092735;28;20279;-67
2020/12/24 03:45:08;;;;;;;1.43;1.00;;;;;;;10.56;100.00;97440.34;5092433;28;20278;-68
2020/12/24 03:47:34;;;;;;;1.00;0.90;;;;;;;10.46;100.00;97429.00;5092331;28;20240;-69
2020/12/24 03:50:00;;;;;;;1.27;1.00;;;;;;;10.41;100.00;97440.31;5092651;28;20208;-69
2020/12/24 03:52:26;;;;;;;2.13;1.03;;;;;;;10.28;100.00;97434.06;5092578;28;20259;-68
2020/12/24 03:55:01;;;;;;;1.93;1.30;;;;;;;10.28;100.00;97439.56;5092046;28;20224;-68
2020/12/24 03:57:28;;;;;;;3.80;1.00;;;;;;;10.09;100.00;97442.19;5091482;28;20230;-68
2020/12/24 03:59:54;;;;;;;2.30;0.90;;;;;;;10.06;100.00;97446.41;5092313;28;20251;-67
2020/12/24 04:02:20;;;;;;;0.80;0.67;;;;;;;10.11;100.00;97451.69;5092278;28;20205;-68
2020/12/24 04:04:49;;;;;;;1.90;1.00;;;;;;;10.03;100.00;97449.88;5091751;28;20287;-68
2020/12/24 04:07:18;;;;;;;1.50;0.70;;;;;;;10.02;100.00;97456.53;5090761;28;20208;-67
2020/12/24 04:09:44;;;;;;;1.13;0.67;;;;;;;10.02;100.00;97458.47;5091532;28;20240;-67
2020/12/24 04:12:10;;;;;;;0.97;0.70;;;;;;;10.06;100.00;97467.66;5090901;28;20248;-68
2020/12/24 04:14:39;;;;;;;1.73;0.80;;;;;;;9.99;100.00;97468.28;5091836;28;20334;-68
2020/12/24 04:17:05;;;;;;;1.70;0.60;;;;;;;10.00;100.00;97482.84;5092161;28;20685;-69
2020/12/24 04:19:32;;;;;;;0.87;0.63;;;;;;;9.95;100.00;97474.81;5091714;28;20211;-68
2020/12/24 04:21:58;;;;;;;0.30;0.30;;;;;;;9.80;100.00;97476.34;5091823;28;20721;-68
2020/12/24 04:24:25;;;;;;;2.03;0.57;;;;;;;9.79;100.00;97473.94;5090186;28;20197;-69
2020/12/24 04:26:54;;;;;;;0.60;0.40;;;;;;;9.69;100.00;97486.25;5091933;28;20228;-68
2020/12/24 04:29:20;;;;;;;2.30;0.53;;;;;;;9.56;100.00;97484.66;5091460;28;20299;-68
2020/12/24 04:31:46;;;;;;;3.33;0.70;;;;;;;9.69;100.00;97477.97;5091662;28;20300;-70
2020/12/24 04:34:12;;;;;;;1.30;0.57;;;;;;;9.68;100.00;97476.38;5089759;28;20281;-67
2020/12/24 04:36:40;;;;;;;1.67;0.50;;;;;;;9.50;100.00;97474.22;5091547;28;20235;-67
2020/12/24 04:39:06;;;;;;;1.37;0.40;;;;;;;9.45;100.00;97475.25;5091111;28;20218;-67
2020/12/24 04:41:33;;;;;;;1.57;0.40;;;;;;;9.46;100.00;97470.56;5091888;28;20205;-68
2020/12/24 04:44:00;;;;;;;1.43;0.40;;;;;;;9.41;100.00;97482.63;5106899;28;20197;-69
2020/12/24 04:46:28;;;;;;;1.33;0.50;;;;;;;9.36;100.00;97474.59;5098025;28;20234;-68
2020/12/24 04:48:58;;;;;;;2.13;0.43;;;;;;;9.43;100.00;97463.00;5090963;28;20239;-69
2020/12/24 04:51:25;;;;;;;2.53;0.50;;;;;;;9.35;100.00;97461.97;5091678;28;20215;-68
2020/12/24 04:53:52;;;;;;;0.87;0.40;;;;;;;9.27;100.00;97454.63;5089849;28;20256;-67
2020/12/24 04:56:19;;;;;;;1.57;0.50;;;;;;;9.41;100.00;97455.09;5091239;28;20234;-69
2020/12/24 04:58:45;;;;;;;1.53;0.50;;;;;;;9.34;100.00;97465.06;5091063;28;20262;-69
2020/12/24 05:01:16;;;;;;;2.13;0.60;;;;;;;9.15;100.00;97465.66;5091439;28;20209;-69
2020/12/24 05:03:43;;;;;;;1.47;0.40;;;;;;;9.09;100.00;97467.84;5091780;28;20601;-66
2020/12/24 05:06:16;;;;;;;1.23;0.60;;;;;;;9.11;100.00;97464.72;5092261;28;20232;-68
2020/12/24 05:09:02;;;;;;;0.80;0.30;;;;;;;9.13;100.00;97466.00;5092913;28;20279;-68
2020/12/24 05:11:30;;;;;;;1.70;0.50;;;;;;;9.27;100.00;97460.13;5081176;28;20209;-68
2020/12/24 05:14:14;;;;;;;1.90;0.70;;;;;;;9.15;100.00;97455.47;5069802;28;20252;-66
2020/12/24 05:16:41;;;;;;;0.17;0.10;;;;;;;9.18;100.00;97473.22;5070914;28;20229;-67
2020/12/24 05:19:13;;;;;;;1.03;0.30;;;;;;;9.12;100.00;97469.09;5070452;28;20241;-69
2020/12/24 05:21:46;;;;;;;0.90;0.40;;;;;;;9.11;100.00;97467.50;5073182;28;20200;-67
2020/12/24 05:24:25;;;;;;;1.03;0.40;;;;;;;8.97;100.00;97467.84;5090242;28;20243;-67
2020/12/24 05:26:53;;;;;;;1.90;0.40;;;;;;;8.99;100.00;97453.75;5093239;28;20713;-67
2020/12/24 05:29:20;;;;;;;1.27;0.30;;;;;;;9.00;100.00;97449.81;5112388;28;20222;-66
2020/12/24 05:31:53;;;;;;;0.63;0.37;;;;;;;8.92;100.00;97459.78;5095779;28;20236;-67
2020/12/24 05:34:21;;;;;;;3.60;0.40;;;;;;;8.93;100.00;97457.84;5090484;28;20266;-68
2020/12/24 05:36:47;;;;;;;1.57;0.40;;;;;;;8.94;100.00;97448.47;5090162;28;20259;-67
2020/12/24 05:39:13;;;;;;;1.53;0.50;;;;;;;8.94;100.00;97453.97;5090505;28;20246;-67
2020/12/24 05:41:43;;;;;;;0.50;0.20;;;;;;;8.97;100.00;97442.28;5090848;28;20228;-67
2020/12/24 05:44:12;;;;;;;2.90;0.30;;;;;;;8.74;100.00;97446.63;5090080;28;20196;-67
2020/12/24 05:46:39;;;;;;;0.43;0.30;;;;;;;8.85;100.00;97440.31;5091025;28;20311;-67
2020/12/24 05:49:13;;;;;;;0.93;0.50;;;;;;;8.82;100.00;97443.75;5090444;28;20274;-66
2020/12/24 05:52:02;;;;;;;0.47;0.40;;;;;;;8.88;100.00;97444.31;5092811;28;20215;-68
2020/12/24 05:54:33;;;;;;;1.23;0.57;;;;;;;8.96;100.00;97459.91;5092177;28;20693;-66
2020/12/24 05:57:03;;;;;;;1.10;0.70;;;;;;;8.85;100.00;97447.78;5093972;28;20200;-66
2020/12/24 05:59:30;;;;;;;1.83;1.00;;;;;;;8.87;100.00;97451.78;5093129;28;20204;-68
2020/12/24 06:02:14;;;;;;;2.37;0.53;;;;;;;8.92;100.00;97454.28;5093479;28;20269;-66
2020/12/24 06:04:43;;;;;;;1.37;0.63;;;;;;;8.85;100.00;97447.78;5093678;28;20200;-67
2020/12/24 06:07:12;;;;;;;1.13;0.47;;;;;;;8.73;100.00;97450.50;5092710;28;20233;-68
2020/12/24 06:09:40;;;;;;;2.30;0.50;;;;;;;8.72;100.00;97451.66;5092339;28;20291;-67
2020/12/24 06:12:19;;;;;;;2.50;0.40;;;;;;;8.78;100.00;97448.31;5092470;28;20234;-67
2020/12/24 06:14:57;;;;;;;4.10;0.90;;;;;;;8.93;100.00;97447.66;5097137;28;20621;-67
2020/12/24 06:17:28;;;;;;;1.13;0.40;;;;;;;8.85;100.00;97437.56;5097672;28;20226;-67
2020/12/24 06:19:58;;;;;;;1.80;0.53;;;;;;;8.73;100.00;97428.50;5097164;28;20617;-69
2020/12/24 06:22:25;;;;;;;1.37;0.50;;;;;;;8.87;100.00;97417.94;5094225;28;20208;-68
2020/12/24 06:24:56;;;;;;;1.90;0.63;;;;;;;8.86;100.00;97421.84;5093780;28;20240;-69
2020/12/24 06:27:26;;;;;;;3.53;0.63;;;;;;;8.83;100.00;97415.09;5094078;28;20721;-68
2020/12/24 06:30:00;;;;;;;0.80;0.40;;;;;;;8.84;100.00;97407.63;5094289;28;20236;-67
2020/12/24 06:32:28;;;;;;;1.63;0.60;;;;;;;8.87;100.00;97416.00;5094260;28;20306;-68
2020/12/24 06:34:54;;;;;;;3.03;0.60;;;;;;;8.89;100.00;97407.41;5095206;28;20667;-68
2020/12/24 06:37:20;;;;;;;2.47;0.40;;;;;;;8.76;100.00;97395.59;5093997;28;20254;-67
2020/12/24 06:39:52;;;;;;;2.13;0.50;;;;;;;8.82;100.00;97376.91;5093875;28;20257;-67
2020/12/24 06:42:51;;;;;;;2.13;0.50;;;;;;;8.67;100.00;97369.34;5093076;28;20240;-67
2020/12/24 06:45:20;;;;;;;1.20;0.60;;;;;;;8.50;100.00;97391.59;5089016;28;20252;-67
2020/12/24 06:48:11;;;;;;;0.83;0.43;;;;;;;8.82;100.00;97393.41;5095451;28;20265;-66
2020/12/24 06:50:39;;;;;;;1.13;0.40;;;;;;;8.93;100.00;97394.56;5099186;28;20200;-68
2020/12/24 06:53:32;;;;;;;0.40;0.40;;;;;;;8.97;100.00;97406.50;5095822;28;20311;-67
2020/12/24 06:56:16;;;;;;;1.87;0.50;;;;;;;8.82;100.00;97407.19;5093362;28;20670;-67
2020/12/24 06:58:45;;;;;;;0.50;0.40;;;;;;;8.91;100.00;97413.38;5093348;28;20680;-67
2020/12/24 07:01:19;;;;;;;1.40;1.00;;;;;;;8.88;100.00;97427.81;5093653;28;20216;-66
2020/12/24 07:03:47;;;;;;;2.87;0.50;;;;;;;8.74;100.00;97425.41;5093150;28;20201;-67
2020/12/24 07:06:13;;;;;;;1.03;0.53;;;;;;;8.75;100.00;97423.44;5092016;28;20252;-69
2020/12/24 07:08:43;;;;;;;0.70;0.40;;;;;;;8.79;100.00;97432.63;5093257;28;20212;-68
2020/12/24 07:11:10;;;;;;;1.47;0.60;;;;;;;8.71;100.00;97433.53;5092476;28;20273;-65
2020/12/24 07:13:38;;;;;;;2.70;0.50;;;;;;;8.66;100.00;97439.25;5091622;28;20704;-66
2020/12/24 07:16:06;;;;;;;1.67;0.60;;;;;;;8.73;100.00;97434.81;5093297;28;20309;-66
2020/12/24 07:18:38;;;;;;;3.27;0.60;;;;;;;8.52;100.00;97436.03;5093111;28;20295;-68
2020/12/24 07:21:10;;;;;;;1.73;0.53;;;;;;;8.44;100.00;97435.00;5092887;28;20757;-68
2020/12/24 07:23:38;;;;;;;1.17;0.50;;;;;;;8.57;100.00;97430.31;5092888;28;20262;-68
2020/12/24 07:26:09;;;;;;;0.93;0.60;;;;;;;8.53;100.00;97438.44;5093244;28;20314;-67
2020/12/24 07:28:37;;;;;;;3.10;0.63;;;;;;;8.55;100.00;97440.84;5092839;28;20240;-67
2020/12/24 07:31:05;;;;;;;2.17;0.67;;;;;;;8.72;100.00;97438.69;5093123;28;20247;-67
2020/12/24 07:33:32;;;;;;;0.93;0.40;;;;;;;8.62;100.00;97427.34;5090837;28;20307;-68
2020/12/24 07:35:59;;;;;;;1.73;0.60;;;;;;;8.62;100.00;97419.09;5091261;28;20224;-68
2020/12/24 07:38:30;;;;;;;2.07;0.63;;;;;;;8.72;100.00;97422.19;5092348;28;20241;-67
2020/12/24 07:40:56;;;;;;;3.50;0.80;;;;;;;8.43;100.00;97425.13;5094303;28;20208;-67
2020/12/24 07:43:26;;;;;;;1.87;0.60;;;;;;;8.57;100.00;97411.06;5088052;28;20205;-66
2020/12/24 07:45:55;;;;;;;6.07;0.87;;;;;;;8.69;100.00;97424.81;5075344;28;20260;-67
2020/12/24 07:48:23;;;;;;;1.47;0.50;;;;;;;8.67;100.00;97413.34;5072134;28;20701;-68
2020/12/24 07:50:51;;;;;;;2.47;0.67;;;;;;;8.75;100.00;97412.44;5072629;28;20228;-68
2020/12/24 07:53:28;;;;;;;2.23;0.73;;;;;;;8.72;100.00;97404.91;5072283;28;20251;-68
2020/12/24 07:56:05;;;;;;;2.90;0.70;;;;;;;8.73;100.00;97398.25;5072476;28;20231;-68
2020/12/24 07:58:31;;;;;;;2.60;0.70;;;;;;;8.51;100.00;97393.16;5071454;28;20271;-66
2020/12/24 08:01:02;;;;;;;2.23;0.70;;;;;;;8.50;100.00;97377.84;5072361;28;20216;-66
2020/12/24 08:03:28;;;;;;;1.97;0.30;;;;;;;8.43;100.00;97380.34;5071779;28;20737;-66
2020/12/24 08:06:06;;;;;;;1.20;0.40;;;;;;;8.42;100.00;97373.22;5072579;28;20228;-69
2020/12/24 08:08:35;;;;;;;1.97;0.60;;;;;;;8.37;100.00;97373.47;5070776;28;20208;-66
2020/12/24 08:11:07;;;;;;;4.43;0.70;;;;;;;8.44;100.00;97379.19;5103893;28;20204;-68
2020/12/24 08:13:33;;;;;;;2.13;0.60;;;;;;;8.18;100.00;97385.75;5112508;28;20231;-65
2020/12/24 08:16:00;;;;;;;2.87;0.60;;;;;;;8.20;100.00;97401.91;5112544;28;20793;-67
2020/12/24 08:18:41;;;;;;;1.63;0.50;;;;;;;8.05;100.00;97408.84;5094521;28;20214;-66
2020/12/24 08:21:27;;;;;;;3.07;0.60;;;;;;;8.05;100.00;97402.53;5113357;28;20235;-67
2020/12/24 08:23:59;;;;;;;1.30;0.70;;;;;;;8.17;100.00;97399.84;5115387;28;20294;-68
2020/12/24 08:26:25;;;;;;;4.60;0.80;;;;;;;8.19;100.00;97403.84;5119796;28;20220;-69
2020/12/24 08:28:55;;;;;;;3.80;0.67;;;;;;;8.04;100.00;97401.78;5120897;28;20203;-69
2020/12/24 08:31:23;;;;;;;3.77;0.80;;;;;;;8.08;100.00;97407.38;5116140;28;20374;-68
2020/12/24 08:33:54;;;;;;;2.10;0.50;;;;;;;8.14;100.00;97409.56;5115052;27;20310;-67
2020/12/24 08:36:22;;;;;;;2.27;0.70;;;;;;;8.33;100.00;97419.25;5133285;27;20230;-68
2020/12/24 08:38:50;;;;;;;2.83;0.70;;;;;;;8.18;100.00;97413.25;5117766;27;20203;-66
2020/12/24 08:41:44;;;;;;;2.37;0.70;;;;;;;8.37;100.00;97400.94;5112432;28;20196;-67
2020/12/24 08:44:16;;;;;;;2.53;0.60;;;;;;;8.30;100.00;97381.47;5086686;28;20260;-71
2020/12/24 08:46:43;;;;;;;2.20;0.70;;;;;;;8.75;100.00;97376.69;5111775;28;20720;-68
2020/12/24 08:49:23;;;;;;;2.50;0.70;;;;;;;9.10;100.00;97364.84;5112413;28;20204;-70
2020/12/24 08:51:50;;;;;;;3.60;0.80;;;;;;;10.33;100.00;97364.06;5092620;28;20216;-67
2020/12/24 08:54:20;;;;;;;2.73;0.80;;;;;;;10.45;100.00;97361.22;5092377;28;20319;-66
2020/12/24 08:56:52;;;;;;;2.50;0.80;;;;;;;10.07;100.00;97356.25;5091951;28;20224;-67
2020/12/24 08:59:18;;;;;;;1.33;0.67;;;;;;;11.64;100.00;97352.16;5092207;28;20707;-66
2020/12/24 09:01:44;;;;;;;3.00;0.70;;;;;;;12.15;100.00;97340.56;5074333;28;20201;-67
2020/12/24 09:04:15;;;;;;;1.33;0.40;;;;;;;12.31;100.00;97326.66;5092188;28;20291;-71
2020/12/24 09:06:45;;;;;;;4.43;0.70;;;;;;;12.93;100.00;97317.81;5092899;28;20315;-67
2020/12/24 09:09:25;;;;;;;3.00;1.20;;;;;;;13.17;100.00;97314.59;5095863;28;20235;-64
2020/12/24 09:11:54;;;;;;;3.03;1.00;;;;;;;13.12;100.00;97316.91;5119310;28;20199;-67
2020/12/24 09:14:22;;;;;;;1.70;0.80;;;;;;;11.68;100.00;97306.88;5120260;28;20259;-69
2020/12/24 09:16:57;;;;;;;3.47;0.70;;;;;;;10.45;100.00;97314.31;5113131;28;20251;-66
2020/12/24 09:19:25;;;;;;;2.13;0.80;;;;;;;10.30;100.00;97309.59;5112545;28;20257;-66
2020/12/24 09:21:54;;;;;;;1.97;0.63;;;;;;;9.96;100.00;97300.81;5112301;28;20210;-67
2020/12/24 09:24:20;;;;;;;2.63;0.60;;;;;;;9.95;100.00;97299.25;5112544;28;20290;-67
2020/12/24 09:26:52;;;;;;;3.27;0.70;;;;;;;10.35;100.00;97299.09;5112760;28;20259;-67
2020/12/24 09:29:19;;;;;;;3.07;0.90;;;;;;;10.82;100.00;97299.06;5113139;28;20227;-67
2020/12/24 09:31:58;;;;;;;2.50;0.70;;;;;;;10.48;100.00;97300.63;5113151;28;20242;-67
2020/12/24 09:34:28;;;;;;;3.83;0.60;;;;;;;12.02;100.00;97283.81;5112008;28;20223;-66
2020/12/24 09:36:55;;;;;;;4.10;0.70;;;;;;;12.88;100.00;97279.31;5112236;28;20227;-67
2020/12/24 09:39:22;;;;;;;2.07;0.83;;;;;;;13.47;100.00;97263.94;5112351;28;20249;-65
2020/12/24 09:41:49;;;;;;;2.87;0.70;;;;;;;14.24;100.00;97260.03;5093885;28;20302;-66
2020/12/24 09:44:19;;;;;;;1.63;0.73;;;;;;;13.57;100.00;97266.84;5112802;28;20200;-68
2020/12/24 09:46:49;;;;;;;1.37;0.70;;;;;;;11.88;100.00;97264.22;5115074;28;20273;-67
2020/12/24 09:49:17;;;;;;;2.37;0.90;;;;;;;11.11;100.00;97266.19;5112305;28;20231;-66
2020/12/24 09:51:44;;;;;;;4.53;0.90;;;;;;;10.86;100.00;97269.56;5112209;28;20285;-66
2020/12/24 09:54:27;;;;;;;2.13;0.70;;;;;;;10.96;100.00;97271.78;5113273;28;20324;-66
2020/12/24 09:56:57;;;;;;;1.90;0.60;;;;;;;10.67;100.00;97272.31;5116160;28;20230;-65
2020/12/24 09:59:25;;;;;;;2.13;0.73;;;;;;;10.40;100.00;97281.50;5115871;28;20204;-65
2020/12/24 10:01:53;;;;;;;4.13;1.00;;;;;;;10.39;100.00;97279.88;5081360;28;20261;-66
2020/12/24 10:04:19;;;;;;;3.53;0.80;;;;;;;10.64;100.00;97270.25;5121779;28;20291;-65
2020/12/24 10:06:45;;;;;;;4.43;1.40;;;;;;;10.71;100.00;97265.69;5121310;28;20273;-65
2020/12/24 10:09:18;;;;;;;3.03;1.00;;;;;;;10.69;100.00;97262.47;5119098;28;20204;-64
2020/12/24 10:11:46;;;;;;;5.93;0.93;;;;;;;11.29;100.00;97252.78;5115582;28;20732;-65
2020/12/24 10:14:12;;;;;;;2.53;1.00;;;;;;;12.20;100.00;97250.97;5115276;28;20319;-66
2020/12/24 10:16:38;;;;;;;3.47;1.00;;;;;;;12.32;100.00;97253.53;5097478;28;20219;-66
2020/12/24 10:19:10;;;;;;;2.47;0.80;;;;;;;11.22;100.00;97236.84;5119033;28;20303;-65
2020/12/24 10:21:41;;;;;;;2.57;0.97;;;;;;;11.49;100.00;97237.78;5097622;28;20223;-65
2020/12/24 10:24:14;;;;;;;1.80;0.70;;;;;;;11.14;100.00;97231.53;5115647;28;20192;-66
2020/12/24 10:26:40;;;;;;;2.90;0.93;;;;;;;11.15;100.00;97230.38;5115825;28;20236;-65
2020/12/24 10:29:06;;;;;;;5.17;0.90;;;;;;;11.07;100.00;97218.41;5116672;28;20207;-67
2020/12/24 10:31:32;;;;;;;2.53;0.80;;;;;;;11.11;100.00;97210.19;5115788;28;20571;-66
2020/12/24 10:33:58;;;;;;;2.27;0.90;;;;;;;11.19;100.00;97204.44;5115344;28;20227;-67
2020/12/24 10:36:25;;;;;;;5.27;1.13;;;;;;;11.21;100.00;97201.31;5115527;28;20310;-65
2020/12/24 10:38:51;;;;;;;2.70;0.90;;;;;;;11.33;100.00;97198.38;5116047;28;20211;-65
2020/12/24 10:41:18;;;;;;;3.70;0.87;;;;;;;11.02;100.00;97184.75;5123711;28;20242;-67
2020/12/24 10:43:44;;;;;;;2.47;0.80;;;;;;;10.95;100.00;97188.16;5106488;28;20238;-66
2020/12/24 10:46:21;;;;;;;5.70;1.10;;;;;;;10.96;100.00;97177.94;5117839;28;20318;-67
2020/12/24 10:48:48;;;;;;;4.17;1.07;;;;;;;10.96;100.00;97175.16;5116466;28;20216;-66
2020/12/24 10:51:15;;;;;;;7.53;1.90;;;;;;;10.89;100.00;97175.81;5115072;28;20664;-66
2020/12/24 10:53:45;;;;;;;3.13;0.87;;;;;;;10.91;100.00;97175.47;5097309;28;20224;-66
2020/12/24 10:56:12;;;;;;;5.23;1.27;;;;;;;10.92;100.00;97169.56;5115282;28;20318;-66
2020/12/24 10:58:41;;;;;;;3.03;1.23;;;;;;;10.87;100.00;97177.34;5115292;28;20204;-66
2020/12/24 11:01:12;;;;;;;4.17;1.10;;;;;;;10.98;100.00;97179.13;5114946;28;20214;-66
2020/12/24 11:03:38;;;;;;;2.57;1.00;;;;;;;10.94;100.00;97169.22;5114677;28;20291;-65
2020/12/24 11:06:06;;;;;;;5.57;1.20;;;;;;;10.79;100.00;97170.06;5114274;28;20668;-65
2020/12/24 11:08:32;;;;;;;5.50;0.93;;;;;;;10.84;100.00;97158.72;5114915;28;20638;-64
2020/12/24 11:10:58;;;;;;;4.50;0.90;;;;;;;10.77;100.00;97158.59;5115078;28;20207;-65
2020/12/24 11:13:25;;;;;;;3.43;0.87;;;;;;;10.75;100.00;97156.19;5116831;28;20228;-68
2020/12/24 11:15:54;;;;;;;2.33;1.13;;;;;;;10.70;100.00;97158.44;5114671;28;20223;-66
2020/12/24 11:18:20;;;;;;;4.33;1.07;;;;;;;10.73;100.00;97146.69;5114465;28;20631;-66
2020/12/24 11:20:49;;;;;;;5.80;1.30;;;;;;;10.56;100.00;97138.84;5114873;28;20261;-64
2020/12/24 11:23:18;;;;;;;2.83;1.00;;;;;;;10.77;100.00;97148.34;5096780;28;20235;-66
2020/12/24 11:25:49;;;;;;;2.63;0.77;;;;;;;10.67;100.00;97142.63;5132981;28;20207;-65
2020/12/24 11:28:14;;;;;;;4.40;1.10;;;;;;;10.56;100.00;97144.34;5119677;28;20230;-65
2020/12/24 11:30:40;;;;;;;4.07;0.90;;;;;;;10.65;100.00;97145.75;5114473;28;20560;-66
2020/12/24 11:33:10;;;;;;;2.67;0.90;;;;;;;10.47;100.00;97124.44;5113634;28;20302;-66
2020/12/24 11:35:39;;;;;;;5.13;1.10;;;;;;;10.53;100.00;97134.81;5114247;28;20316;-65
2020/12/24 11:38:05;;;;;;;2.83;0.87;;;;;;;10.49;100.00;97130.41;5115168;28;20204;-65
2020/12/24 11:40:31;;;;;;;3.30;0.93;;;;;;;10.54;100.00;97121.84;5118153;28;20294;-65
2020/12/24 11:42:57;;;;;;;4.20;1.23;;;;;;;10.68;100.00;97120.19;5117630;28;20211;-66
2020/12/24 11:45:24;;;;;;;3.70;1.17;;;;;;;10.77;100.00;97120.75;5108344;28;20291;-66
2020/12/24 11:47:52;;;;;;;4.20;0.90;;;;;;;10.52;100.00;97113.13;5117118;28;20226;-66
2020/12/24 11:50:18;;;;;;;1.57;0.70;;;;;;;10.61;100.00;97116.47;5114657;28;20291;-65
2020/12/24 11:52:44;;;;;;;1.97;0.60;;;;;;;10.57;100.00;97107.31;5113751;28;20223;-66
2020/12/24 11:55:10;;;;;;;4.00;1.20;;;;;;;10.45;100.00;97108.28;5113700;28;20236;-67
2020/12/24 11:57:37;;;;;;;3.27;0.70;;;;;;;10.46;100.00;97109.06;5113814;28;20300;-67
2020/12/24 12:00:06;;;;;;;2.60;0.70;;;;;;;10.43;100.00;97104.25;5113392;28;20776;-67
2020/12/24 12:02:35;;;;;;;2.20;1.07;;;;;;;10.16;100.00;97097.78;5113464;28;20680;-67
2020/12/24 12:05:04;;;;;;;2.70;0.77;;;;;;;10.30;100.00;97100.03;5113553;28;20326;-66
2020/12/24 12:07:31;;;;;;;3.60;0.90;;;;;;;10.25;100.00;97103.09;5098118;28;20199;-67